createdAt,value
2023-05-16T00:01:22.045Z,12.70
2023-05-16T00:03:48.907Z,12.60
2023-05-16T00:06:15.762Z,12.60
2023-05-16T00:08:42.341Z,12.60
2023-05-16T00:11:08.968Z,12.60
2023-05-16T00:13:35.648Z,12.50
2023-05-16T00:16:02.570Z,12.50
2023-05-16T00:18:29.309Z,12.40
2023-05-16T00:20:56.495Z,12.40
2023-05-16T00:23:23.125Z,12.30
2023-05-16T00:25:49.746Z,12.20
2023-05-16T00:28:16.625Z,12.30
2023-05-16T00:30:43.227Z,12.20
2023-05-16T00:33:09.907Z,12.10
2023-05-16T00:35:36.594Z,12.10
2023-05-16T00:38:03.274Z,12.10
2023-05-16T00:40:29.870Z,12.10
2023-05-16T00:42:56.522Z,12.20
2023-05-16T00:45:23.209Z,12.20
2023-05-16T00:47:51.436Z,12.20
2023-05-16T00:50:18.964Z,12.10
2023-05-16T00:52:45.858Z,12.00
2023-05-16T00:55:14.428Z,12.00
2023-05-16T00:57:41.154Z,11.90
2023-05-16T01:00:10.542Z,12.00
2023-05-16T01:02:37.609Z,12.10
2023-05-16T01:05:11.033Z,12.10
2023-05-16T01:07:37.818Z,12.10
2023-05-16T01:10:07.781Z,12.10
2023-05-16T01:12:59.749Z,12.10
2023-05-16T01:15:30.294Z,12.10
2023-05-16T01:18:14.204Z,12.10
2023-05-16T01:20:48.167Z,12.00
2023-05-16T01:23:31.381Z,12.00
2023-05-16T01:26:22.226Z,12.00
2023-05-16T01:28:50.752Z,11.90
2023-05-16T01:31:19.327Z,11.90
2023-05-16T01:33:46.115Z,11.90
2023-05-16T01:36:31.326Z,11.80
2023-05-16T01:39:03.919Z,11.80
2023-05-16T01:41:47.560Z,11.60
2023-05-16T01:44:23.549Z,11.60
2023-05-16T01:46:55.203Z,11.60
2023-05-16T01:49:40.738Z,11.50
2023-05-16T01:52:22.774Z,11.50
2023-05-16T01:54:55.998Z,11.40
2023-05-16T01:57:26.224Z,11.40
2023-05-16T01:59:53.427Z,11.40
2023-05-16T02:02:20.787Z,11.40
2023-05-16T02:04:47.417Z,11.40
2023-05-16T02:07:15.706Z,11.40
2023-05-16T02:09:44.981Z,11.40
2023-05-16T02:12:11.614Z,11.40
2023-05-16T02:14:38.271Z,11.30
2023-05-16T02:17:06.428Z,11.30
2023-05-16T02:19:33.142Z,11.20
2023-05-16T02:22:00.619Z,11.20
2023-05-16T02:24:27.286Z,11.10
2023-05-16T02:26:55.649Z,11.10
2023-05-16T02:29:22.265Z,11.00
2023-05-16T02:31:49.261Z,11.00
2023-05-16T02:34:16.506Z,11.00
2023-05-16T02:36:43.155Z,10.90
2023-05-16T02:39:10.269Z,10.80
2023-05-16T02:41:37.331Z,10.80
2023-05-16T02:44:04.148Z,10.70
2023-05-16T02:46:33.479Z,10.70
2023-05-16T02:49:00.650Z,10.60
2023-05-16T02:51:28.354Z,10.50
2023-05-16T02:53:59.739Z,10.50
2023-05-16T02:56:26.814Z,10.50
2023-05-16T02:58:54.507Z,10.30
2023-05-16T03:01:21.284Z,10.20
2023-05-16T03:03:48.071Z,10.10
2023-05-16T03:06:14.746Z,10.00
2023-05-16T03:08:41.499Z,9.90
2023-05-16T03:11:08.164Z,9.90
2023-05-16T03:13:34.779Z,9.80
2023-05-16T03:16:01.502Z,9.70
2023-05-16T03:18:28.241Z,9.70
2023-05-16T03:20:54.901Z,9.60
2023-05-16T03:23:23.948Z,9.60
2023-05-16T03:25:50.773Z,9.70
2023-05-16T03:28:20.898Z,9.70
2023-05-16T03:30:47.854Z,9.80
2023-05-16T03:33:14.442Z,9.80
2023-05-16T03:35:41.259Z,9.70
2023-05-16T03:38:08.083Z,9.70
2023-05-16T03:40:35.216Z,9.60
2023-05-16T03:43:01.784Z,9.60
2023-05-16T03:45:30.581Z,9.60
2023-05-16T03:47:57.875Z,9.60
2023-05-16T03:50:25.407Z,9.70
2023-05-16T03:52:55.534Z,9.70
2023-05-16T03:55:22.153Z,9.70
2023-05-16T03:57:50.036Z,9.70
2023-05-16T04:00:17.149Z,9.70
2023-05-16T04:02:43.979Z,9.70
2023-05-16T04:05:12.362Z,9.70
2023-05-16T04:07:39.258Z,9.80
2023-05-16T04:10:06.344Z,9.70
2023-05-16T04:12:33.066Z,9.70
2023-05-16T04:14:59.679Z,9.70
2023-05-16T04:17:26.489Z,9.70
2023-05-16T04:19:53.130Z,9.70
2023-05-16T04:22:22.322Z,9.70
2023-05-16T04:24:49.360Z,9.70
2023-05-16T04:27:16.131Z,9.60
2023-05-16T04:29:42.929Z,9.60
2023-05-16T04:32:10.928Z,9.50
2023-05-16T04:34:39.665Z,9.60
2023-05-16T04:37:08.429Z,9.50
2023-05-16T04:39:36.146Z,9.50
2023-05-16T04:42:04.230Z,9.50
2023-05-16T04:44:30.995Z,9.50
2023-05-16T04:46:57.800Z,9.50
2023-05-16T04:49:24.614Z,9.50
2023-05-16T04:51:51.278Z,9.50
2023-05-16T04:54:17.921Z,9.60
2023-05-16T04:56:44.553Z,9.50
2023-05-16T04:59:11.309Z,9.50
2023-05-16T05:01:37.964Z,9.50
2023-05-16T05:04:04.792Z,9.40
2023-05-16T05:06:31.510Z,9.40
2023-05-16T05:08:58.268Z,9.40
2023-05-16T05:11:24.882Z,9.30
2023-05-16T05:13:53.117Z,9.40
2023-05-16T05:16:19.824Z,9.30
2023-05-16T05:18:46.529Z,9.30
2023-05-16T05:21:13.363Z,9.40
2023-05-16T05:23:40.292Z,9.40
2023-05-16T05:26:07.160Z,9.30
2023-05-16T05:28:33.825Z,9.20
2023-05-16T05:31:00.492Z,9.10
2023-05-16T05:33:29.300Z,9.00
2023-05-16T05:35:55.980Z,9.00
2023-05-16T05:38:22.973Z,9.00
2023-05-16T05:40:49.758Z,9.00
2023-05-16T05:43:16.417Z,9.00
2023-05-16T05:45:43.976Z,9.00
2023-05-16T05:48:11.288Z,9.00
2023-05-16T05:50:38.097Z,9.10
2023-05-16T05:53:04.805Z,9.10
2023-05-16T05:55:31.454Z,9.10
2023-05-16T05:57:58.054Z,9.30
2023-05-16T06:00:24.923Z,9.70
2023-05-16T06:02:51.675Z,9.90
2023-05-16T06:05:18.487Z,10.10
2023-05-16T06:07:45.154Z,10.30
2023-05-16T06:10:11.802Z,10.50
2023-05-16T06:12:38.406Z,10.40
2023-05-16T06:15:05.480Z,10.40
2023-05-16T06:17:32.164Z,10.40
2023-05-16T06:19:58.824Z,10.20
2023-05-16T06:22:25.583Z,10.10
2023-05-16T06:24:52.230Z,10.00
2023-05-16T06:27:18.836Z,9.90
2023-05-16T06:29:45.573Z,9.70
2023-05-16T06:32:13.330Z,9.80
2023-05-16T06:34:40.382Z,10.10
2023-05-16T06:37:07.074Z,10.50
2023-05-16T06:39:33.738Z,10.60
2023-05-16T06:42:00.770Z,10.70
2023-05-16T06:44:32.054Z,10.80
2023-05-16T06:46:59.000Z,11.10
2023-05-16T06:49:25.762Z,11.10
2023-05-16T06:51:52.626Z,11.10
2023-05-16T06:54:19.299Z,11.00
2023-05-16T06:56:45.969Z,11.10
2023-05-16T06:59:12.660Z,11.00
2023-05-16T07:01:39.484Z,11.00
2023-05-16T07:04:06.678Z,10.80
2023-05-16T07:06:33.786Z,10.70
2023-05-16T07:09:00.597Z,12.00
2023-05-16T07:11:27.278Z,12.10
2023-05-16T07:13:54.061Z,12.20
2023-05-16T07:16:20.831Z,12.30
2023-05-16T07:18:47.649Z,12.20
2023-05-16T07:21:14.397Z,12.90
2023-05-16T07:23:41.541Z,12.80
2023-05-16T07:26:08.194Z,12.50
2023-05-16T07:28:34.858Z,12.40
2023-05-16T07:31:01.690Z,12.50
2023-05-16T07:33:28.343Z,12.30
2023-05-16T07:36:07.849Z,12.10
2023-05-16T07:38:41.974Z,12.30
2023-05-16T07:41:09.046Z,12.40
2023-05-16T07:43:36.740Z,12.40
2023-05-16T07:46:04.086Z,12.40
2023-05-16T07:48:31.076Z,12.40
2023-05-16T07:50:58.118Z,12.70
2023-05-16T07:53:24.890Z,13.10
2023-05-16T07:55:51.779Z,13.50
2023-05-16T07:58:19.766Z,13.90
2023-05-16T08:00:46.654Z,14.20
2023-05-16T08:03:13.749Z,14.00
2023-05-16T08:05:40.807Z,13.90
2023-05-16T08:08:07.522Z,13.80
2023-05-16T08:10:34.309Z,13.50
2023-05-16T08:13:00.989Z,12.90
2023-05-16T08:15:28.626Z,12.70
2023-05-16T08:17:58.741Z,12.50
2023-05-16T08:20:26.492Z,12.50
2023-05-16T08:22:53.769Z,12.50
2023-05-16T08:25:20.701Z,12.40
2023-05-16T08:27:49.600Z,12.40
2023-05-16T08:30:16.370Z,12.60
2023-05-16T08:32:43.481Z,12.60
2023-05-16T08:35:11.203Z,12.90
2023-05-16T08:37:37.946Z,13.40
2023-05-16T08:40:09.270Z,13.80
2023-05-16T08:42:36.429Z,13.80
2023-05-16T08:45:05.131Z,14.10
2023-05-16T08:47:33.062Z,14.50
2023-05-16T08:50:02.748Z,14.70
2023-05-16T08:52:31.660Z,14.80
2023-05-16T08:55:11.006Z,15.00
2023-05-16T08:57:38.860Z,15.20
2023-05-16T09:00:11.806Z,14.90
2023-05-16T09:02:40.237Z,14.80
2023-05-16T09:05:11.223Z,14.80
2023-05-16T09:07:38.476Z,14.90
2023-05-16T09:10:06.916Z,15.10
2023-05-16T09:12:34.646Z,15.20
2023-05-16T09:15:06.364Z,15.30
2023-05-16T09:17:51.690Z,15.00
2023-05-16T09:20:20.486Z,14.70
2023-05-16T09:22:58.464Z,14.40
2023-05-16T09:25:30.955Z,14.40
2023-05-16T09:28:01.442Z,14.70
2023-05-16T09:30:31.377Z,15.00
2023-05-16T09:32:58.924Z,15.10
2023-05-16T09:37:56.721Z,14.90
2023-05-16T09:40:24.020Z,14.80
2023-05-16T09:43:07.082Z,14.90
2023-05-16T09:45:35.373Z,15.20
2023-05-16T09:48:05.696Z,15.40
2023-05-16T09:50:36.846Z,15.50
2023-05-16T09:53:04.533Z,15.50
2023-05-16T09:55:32.203Z,15.30
2023-05-16T09:57:58.914Z,15.10
2023-05-16T10:00:31.459Z,14.90
2023-05-16T10:03:01.415Z,14.90
2023-05-16T10:05:31.159Z,15.00
2023-05-16T10:07:58.766Z,15.30
2023-05-16T10:10:26.786Z,15.50
2023-05-16T10:12:56.383Z,15.40
2023-05-16T10:15:23.199Z,15.30
2023-05-16T10:17:53.055Z,15.30
2023-05-16T10:20:22.021Z,15.20
2023-05-16T10:22:52.535Z,15.00
2023-05-16T10:25:36.553Z,14.80
2023-05-16T10:28:04.129Z,14.60
2023-05-16T10:30:33.644Z,14.50
2023-05-16T10:33:01.925Z,14.70
2023-05-16T10:35:28.891Z,14.90
2023-05-16T10:37:56.608Z,15.20
2023-05-16T10:40:24.282Z,15.00
2023-05-16T10:43:05.416Z,14.90
2023-05-16T10:45:32.646Z,14.80
2023-05-16T10:48:04.489Z,14.90
2023-05-16T10:50:49.651Z,14.90
2023-05-16T10:53:20.975Z,15.00
2023-05-16T10:55:51.251Z,15.20
2023-05-16T10:58:26.101Z,15.10
2023-05-16T11:01:16.054Z,15.00
2023-05-16T11:03:58.631Z,15.10
2023-05-16T11:06:27.758Z,15.30
2023-05-16T11:09:10.505Z,15.40
2023-05-16T11:11:58.411Z,15.50
2023-05-16T11:14:29.016Z,15.50
2023-05-16T11:17:11.036Z,15.40
2023-05-16T11:19:52.030Z,15.20
2023-05-16T11:22:40.951Z,15.10
2023-05-16T11:25:13.234Z,15.20
2023-05-16T11:27:47.814Z,15.20
2023-05-16T11:30:17.568Z,15.30
2023-05-16T11:32:46.138Z,15.30
2023-05-16T11:35:15.774Z,15.10
2023-05-16T11:37:44.056Z,15.10
2023-05-16T11:40:12.451Z,15.10
2023-05-16T11:42:46.196Z,15.10
2023-05-16T11:45:16.529Z,15.20
2023-05-16T11:47:44.859Z,15.10
2023-05-16T11:50:16.241Z,15.00
2023-05-16T11:52:45.799Z,15.00
2023-05-16T11:55:14.487Z,15.10
2023-05-16T11:57:44.211Z,15.30
2023-05-16T12:00:16.635Z,15.50
2023-05-16T12:02:45.019Z,15.70
2023-05-16T12:05:11.970Z,15.70
2023-05-16T12:07:38.812Z,15.80
2023-05-16T12:10:10.990Z,15.90
2023-05-16T12:12:40.316Z,15.80
2023-05-16T12:15:08.844Z,15.80
2023-05-16T12:17:40.424Z,15.90
2023-05-16T12:20:14.264Z,15.80
2023-05-16T12:22:44.452Z,15.90
2023-05-16T12:25:31.949Z,15.90
2023-05-16T12:28:01.071Z,15.90
2023-05-16T12:30:30.219Z,15.90
2023-05-16T12:32:58.563Z,16.00
2023-05-16T12:35:33.198Z,15.90
2023-05-16T12:38:01.055Z,15.90
2023-05-16T12:40:31.326Z,16.00
2023-05-16T12:42:58.220Z,16.10
2023-05-16T12:45:27.213Z,16.20
2023-05-16T12:47:54.251Z,16.20
2023-05-16T12:50:22.070Z,16.10
2023-05-16T12:52:54.659Z,15.80
2023-05-16T12:55:22.871Z,15.60
2023-05-16T12:57:50.499Z,15.60
2023-05-16T13:00:19.395Z,15.70
2023-05-16T13:02:47.379Z,15.80
2023-05-16T13:05:14.617Z,15.70
2023-05-16T13:07:41.971Z,15.60
2023-05-16T13:10:10.646Z,15.60
2023-05-16T13:12:40.981Z,15.70
2023-05-16T13:15:09.464Z,15.70
2023-05-16T13:17:37.303Z,15.70
2023-05-16T13:20:08.724Z,15.80
2023-05-16T13:22:38.674Z,15.90
2023-05-16T13:25:06.125Z,15.80
2023-05-16T13:27:33.969Z,15.70
2023-05-16T13:30:01.248Z,15.80
2023-05-16T13:32:28.081Z,15.80
2023-05-16T13:34:54.982Z,15.90
2023-05-16T13:37:24.224Z,16.00
2023-05-16T13:39:50.978Z,16.10
2023-05-16T13:42:17.624Z,16.20
2023-05-16T13:44:44.841Z,16.20
2023-05-16T13:47:11.762Z,16.40
2023-05-16T13:49:38.846Z,16.60
2023-05-16T13:52:06.383Z,16.40
2023-05-16T13:54:33.547Z,16.20
2023-05-16T13:57:01.537Z,16.10
2023-05-16T13:59:48.786Z,16.10
2023-05-16T14:02:15.083Z,16.00
2023-05-16T14:04:41.854Z,16.10
2023-05-16T14:07:08.491Z,16.00
2023-05-16T14:09:38.941Z,15.90
2023-05-16T14:12:07.242Z,15.80
2023-05-16T14:14:37.205Z,15.60
2023-05-16T14:17:04.221Z,15.60
2023-05-16T14:19:31.412Z,15.70
2023-05-16T14:21:58.405Z,15.80
2023-05-16T14:24:25.209Z,15.90
2023-05-16T14:26:57.561Z,16.10
2023-05-16T14:29:25.235Z,16.20
2023-05-16T14:31:52.117Z,16.30
2023-05-16T14:34:18.818Z,16.40
2023-05-16T14:36:45.678Z,16.60
2023-05-16T14:39:12.392Z,16.50
2023-05-16T14:41:39.101Z,16.60
2023-05-16T14:44:05.897Z,16.50
2023-05-16T14:46:33.757Z,16.50
2023-05-16T14:49:00.601Z,16.60
2023-05-16T14:51:27.275Z,16.50
2023-05-16T14:53:54.124Z,16.30
2023-05-16T14:56:21.827Z,16.20
2023-05-16T14:58:48.541Z,16.30
2023-05-16T15:01:16.491Z,16.30
2023-05-16T15:03:54.670Z,16.40
2023-05-16T15:06:23.597Z,16.50
2023-05-16T15:08:50.652Z,16.50
2023-05-16T15:11:17.380Z,16.50
2023-05-16T15:13:44.053Z,16.40
2023-05-16T15:16:12.085Z,16.40
2023-05-16T15:18:38.910Z,16.20
2023-05-16T15:21:05.839Z,16.30
2023-05-16T15:23:32.993Z,16.10
2023-05-16T15:25:59.666Z,16.20
2023-05-16T15:28:26.337Z,16.10
2023-05-16T15:30:53.007Z,15.80
2023-05-16T15:33:19.708Z,15.70
2023-05-16T15:35:46.420Z,15.70
2023-05-16T15:38:13.200Z,15.70
2023-05-16T15:40:39.968Z,15.60
2023-05-16T15:43:07.026Z,15.40
2023-05-16T15:45:33.878Z,15.30
2023-05-16T15:48:02.095Z,15.30
2023-05-16T15:50:28.848Z,15.20
2023-05-16T15:52:58.105Z,15.20
2023-05-16T15:55:24.826Z,15.30
2023-05-16T15:57:51.634Z,15.30
2023-05-16T16:00:18.492Z,15.30
2023-05-16T16:02:46.048Z,15.20
2023-05-16T16:05:13.006Z,15.20
2023-05-16T16:07:40.071Z,15.10
2023-05-16T16:10:07.396Z,15.10
2023-05-16T16:12:34.167Z,15.00
2023-05-16T16:15:02.176Z,14.90
2023-05-16T16:17:29.042Z,14.90
2023-05-16T16:19:55.743Z,14.80
2023-05-16T16:22:22.736Z,14.80
2023-05-16T16:24:49.490Z,14.70
2023-05-16T16:27:16.521Z,14.70
2023-05-16T16:29:43.198Z,14.70
2023-05-16T16:32:09.988Z,14.60
2023-05-16T16:34:36.655Z,14.50
2023-05-16T16:37:03.899Z,14.50
2023-05-16T16:39:32.220Z,14.50
2023-05-16T16:41:59.885Z,14.50
2023-05-16T16:44:26.569Z,14.50
2023-05-16T16:46:53.339Z,14.50
2023-05-16T16:49:20.138Z,14.40
2023-05-16T16:51:47.555Z,14.40
2023-05-16T16:54:14.261Z,14.40
2023-05-16T16:56:41.067Z,14.40
2023-05-16T16:59:07.891Z,14.40
2023-05-16T17:01:35.172Z,14.30
2023-05-16T17:04:02.094Z,14.30
2023-05-16T17:06:29.853Z,14.20
2023-05-16T17:08:56.817Z,14.20
2023-05-16T17:11:23.599Z,14.20
2023-05-16T17:13:50.415Z,14.20
2023-05-16T17:16:17.089Z,14.10
2023-05-16T17:18:43.836Z,14.20
2023-05-16T17:21:12.734Z,14.20
2023-05-16T17:23:41.137Z,14.10
2023-05-16T17:26:09.660Z,14.00
2023-05-16T17:28:36.317Z,14.10
2023-05-16T17:31:03.957Z,14.20
2023-05-16T17:33:31.119Z,14.20
2023-05-16T17:35:57.924Z,14.10
2023-05-16T17:38:24.625Z,14.00
2023-05-16T17:40:51.288Z,13.90
2023-05-16T17:43:17.998Z,13.90
2023-05-16T17:45:44.695Z,13.90
2023-05-16T17:48:11.436Z,13.80
2023-05-16T17:50:38.255Z,13.80
2023-05-16T17:53:05.029Z,13.90
2023-05-16T17:55:33.555Z,13.80
2023-05-16T17:58:00.525Z,13.70
2023-05-16T18:00:27.252Z,13.60
2023-05-16T18:02:54.247Z,13.50
2023-05-16T18:05:21.211Z,13.40
2023-05-16T18:07:47.924Z,13.30
2023-05-16T18:10:14.647Z,13.40
2023-05-16T18:12:42.356Z,13.30
2023-05-16T18:15:10.573Z,13.40
2023-05-16T18:17:37.735Z,13.40
2023-05-16T18:20:10.214Z,13.50
2023-05-16T18:22:41.180Z,13.50
2023-05-16T18:25:09.849Z,13.40
2023-05-16T18:27:37.651Z,13.40
2023-05-16T18:30:06.042Z,13.40
2023-05-16T18:32:33.069Z,13.20
2023-05-16T18:34:59.853Z,13.20
2023-05-16T18:37:26.684Z,13.10
2023-05-16T18:39:53.435Z,13.10
2023-05-16T18:42:20.342Z,13.10
2023-05-16T18:44:47.112Z,13.10
2023-05-16T18:47:15.682Z,13.10
2023-05-16T18:49:43.347Z,13.20
2023-05-16T18:52:11.209Z,13.10
2023-05-16T18:54:38.781Z,13.10
2023-05-16T18:57:06.929Z,13.10
2023-05-16T18:59:34.767Z,13.00
2023-05-16T19:02:01.791Z,13.00
2023-05-16T19:04:28.656Z,13.00
2023-05-16T19:06:57.799Z,12.90
2023-05-16T19:09:25.068Z,12.90
2023-05-16T19:11:51.744Z,12.80
2023-05-16T19:14:18.487Z,12.80
2023-05-16T19:16:45.303Z,12.80
2023-05-16T19:19:12.071Z,12.80
2023-05-16T19:21:39.020Z,12.80
2023-05-16T19:24:06.114Z,12.90
2023-05-16T19:26:32.844Z,12.90
2023-05-16T19:29:00.189Z,12.80
2023-05-16T19:31:26.916Z,12.80
2023-05-16T19:33:53.692Z,12.80
2023-05-16T19:36:21.051Z,12.80
2023-05-16T19:38:47.782Z,12.70
2023-05-16T19:41:14.461Z,12.70
2023-05-16T19:43:41.133Z,12.70
2023-05-16T19:46:07.806Z,12.80
2023-05-16T19:48:35.300Z,12.80
2023-05-16T19:51:02.338Z,12.80
2023-05-16T19:53:28.988Z,12.70
2023-05-16T19:55:55.675Z,12.70
2023-05-16T19:58:22.461Z,12.60
2023-05-16T20:00:50.781Z,12.60
2023-05-16T20:03:17.652Z,12.60
2023-05-16T20:05:44.590Z,12.60
2023-05-16T20:08:11.985Z,12.60
2023-05-16T20:10:39.819Z,12.60
2023-05-16T20:13:06.495Z,12.60
2023-05-16T20:15:33.150Z,12.60
2023-05-16T20:17:59.799Z,12.60
2023-05-16T20:20:26.864Z,12.60
2023-05-16T20:22:53.576Z,12.60
2023-05-16T20:25:20.220Z,12.60
2023-05-16T20:27:46.970Z,12.50
2023-05-16T20:30:14.272Z,12.60
2023-05-16T20:32:41.060Z,12.60
2023-05-16T20:35:10.045Z,12.60
2023-05-16T20:37:37.453Z,12.60
2023-05-16T20:40:05.946Z,12.60
2023-05-16T20:42:32.618Z,12.60
2023-05-16T20:44:59.369Z,12.50
2023-05-16T20:47:26.168Z,12.50
2023-05-16T20:49:52.837Z,12.50
2023-05-16T20:52:21.916Z,12.50
2023-05-16T20:54:51.905Z,12.50
2023-05-16T20:57:18.714Z,12.30
2023-05-16T20:59:45.420Z,12.30
2023-05-16T21:02:12.152Z,12.20
2023-05-16T21:04:38.950Z,12.20
2023-05-16T21:07:08.137Z,12.20
2023-05-16T21:09:36.934Z,12.20
2023-05-16T21:12:04.233Z,12.20
2023-05-16T21:14:30.887Z,12.10
2023-05-16T21:16:57.563Z,12.00
2023-05-16T21:19:24.355Z,12.00
2023-05-16T21:21:51.050Z,12.00
2023-05-16T21:24:17.754Z,11.90
2023-05-16T21:26:44.412Z,12.00
2023-05-16T21:29:11.054Z,11.90
2023-05-16T21:31:37.770Z,11.90
2023-05-16T21:34:04.598Z,11.90
2023-05-16T21:36:31.429Z,11.80
2023-05-16T21:38:58.078Z,11.70
2023-05-16T21:41:24.742Z,11.70
2023-05-16T21:43:51.425Z,11.70
2023-05-16T21:46:18.110Z,11.70
2023-05-16T21:48:44.880Z,11.60
2023-05-16T21:51:11.663Z,11.70
2023-05-16T21:53:38.328Z,11.60
2023-05-16T21:56:06.146Z,11.60
2023-05-16T21:58:32.849Z,11.60
2023-05-16T22:00:59.600Z,11.60
2023-05-16T22:03:26.401Z,11.60
2023-05-16T22:05:53.142Z,11.60
2023-05-16T22:08:19.778Z,11.60
2023-05-16T22:10:46.652Z,11.60
2023-05-16T22:13:13.358Z,11.60
2023-05-16T22:15:42.399Z,11.50
2023-05-16T22:18:11.301Z,11.50
2023-05-16T22:20:37.992Z,11.30
2023-05-16T22:23:04.689Z,11.30
2023-05-16T22:25:31.338Z,11.30
2023-05-16T22:27:58.075Z,11.30
2023-05-16T22:30:24.756Z,11.20
2023-05-16T22:32:51.531Z,11.20
2023-05-16T22:35:18.286Z,11.20
2023-05-16T22:37:45.013Z,11.10
2023-05-16T22:40:11.849Z,11.00
2023-05-16T22:42:38.628Z,11.00
2023-05-16T22:45:05.860Z,10.90
2023-05-16T22:47:32.620Z,10.90
2023-05-16T22:49:59.634Z,10.90
2023-05-16T22:52:26.416Z,10.80
2023-05-16T22:54:53.052Z,10.80
2023-05-16T22:57:19.782Z,10.80
2023-05-16T22:59:46.684Z,10.80
2023-05-16T23:02:13.390Z,10.80
2023-05-16T23:04:40.042Z,10.70
2023-05-16T23:07:06.731Z,10.70
2023-05-16T23:09:33.397Z,10.70
2023-05-16T23:12:01.552Z,10.70
2023-05-16T23:14:28.344Z,10.70
2023-05-16T23:16:55.061Z,10.70
2023-05-16T23:19:21.808Z,10.60
2023-05-16T23:21:48.853Z,10.60
2023-05-16T23:24:15.666Z,10.60
2023-05-16T23:26:42.444Z,10.50
2023-05-16T23:29:09.121Z,10.50
2023-05-16T23:31:36.120Z,10.40
2023-05-16T23:34:03.186Z,10.40
2023-05-16T23:36:30.021Z,10.40
2023-05-16T23:38:56.727Z,10.40
2023-05-16T23:41:23.468Z,10.30
2023-05-16T23:43:50.157Z,10.10
2023-05-16T23:46:16.811Z,10.10
2023-05-16T23:48:43.666Z,10.10
2023-05-16T23:51:10.401Z,10.10
2023-05-16T23:53:37.055Z,10.00
2023-05-16T23:56:03.866Z,10.00
2023-05-16T23:58:30.532Z,10.00
